createdAt,value
2023-11-03T00:01:21.542Z,17.11
2023-11-03T00:03:49.335Z,17.03
2023-11-03T00:06:17.117Z,17.01
2023-11-03T00:08:44.690Z,17.08
2023-11-03T00:11:12.401Z,17.11
2023-11-03T00:13:40.661Z,16.94
2023-11-03T00:16:09.588Z,16.88
2023-11-03T00:18:37.418Z,16.88
2023-11-03T00:21:05.006Z,16.89
2023-11-03T00:23:32.877Z,16.93
2023-11-03T00:26:00.610Z,16.95
2023-11-03T00:28:28.276Z,17.09
2023-11-03T00:30:55.769Z,17.13
2023-11-03T00:33:23.560Z,17.06
2023-11-03T00:35:51.621Z,17.13
2023-11-03T00:38:19.647Z,17.13
2023-11-03T00:40:47.313Z,17.17
2023-11-03T00:43:15.241Z,17.22
2023-11-03T00:45:42.705Z,17.34
2023-11-03T00:48:10.481Z,17.23
2023-11-03T00:50:38.087Z,17.34
2023-11-03T00:53:05.482Z,17.31
2023-11-03T00:55:33.207Z,17.42
2023-11-03T00:58:01.093Z,17.33
2023-11-03T01:00:29.370Z,17.36
2023-11-03T01:02:57.187Z,17.32
2023-11-03T01:05:26.081Z,17.31
2023-11-03T01:07:54.038Z,17.40
2023-11-03T01:10:23.793Z,17.20
2023-11-03T01:12:51.736Z,17.18
2023-11-03T01:15:21.974Z,17.05
2023-11-03T01:17:51.545Z,16.99
2023-11-03T01:20:29.135Z,17.05
2023-11-03T01:22:57.227Z,17.05
2023-11-03T01:25:25.713Z,17.01
2023-11-03T01:27:53.464Z,16.93
2023-11-03T01:30:21.918Z,16.94
2023-11-03T01:32:54.063Z,16.91
2023-11-03T01:35:22.814Z,16.92
2023-11-03T01:37:50.362Z,16.83
2023-11-03T01:40:18.064Z,16.90
2023-11-03T01:42:45.834Z,16.88
2023-11-03T01:45:13.259Z,16.79
2023-11-03T01:47:40.715Z,16.87
2023-11-03T01:50:10.243Z,16.86
2023-11-03T01:52:39.788Z,16.80
2023-11-03T01:55:07.629Z,16.77
2023-11-03T01:57:35.745Z,16.91
2023-11-03T02:00:05.328Z,16.84
2023-11-03T02:02:33.839Z,16.82
2023-11-03T02:05:04.120Z,16.79
2023-11-03T02:07:31.621Z,16.80
2023-11-03T02:09:59.438Z,16.79
2023-11-03T02:12:27.620Z,16.73
2023-11-03T02:14:55.159Z,16.74
2023-11-03T02:17:24.376Z,16.60
2023-11-03T02:19:52.119Z,16.61
2023-11-03T02:22:19.573Z,16.66
2023-11-03T02:24:47.350Z,16.67
2023-11-03T02:27:14.762Z,16.69
2023-11-03T02:29:42.137Z,16.63
2023-11-03T02:32:11.217Z,16.67
2023-11-03T02:34:38.601Z,16.66
2023-11-03T02:37:06.196Z,16.65
2023-11-03T02:39:34.010Z,16.74
2023-11-03T02:42:01.373Z,16.75
2023-11-03T02:44:28.728Z,16.74
2023-11-03T02:46:56.469Z,16.64
2023-11-03T02:49:23.904Z,16.69
2023-11-03T02:51:52.132Z,16.60
2023-11-03T02:54:19.942Z,16.66
2023-11-03T02:56:47.352Z,16.52
2023-11-03T02:59:14.798Z,16.57
2023-11-03T03:01:42.513Z,16.45
2023-11-03T03:04:10.222Z,16.45
2023-11-03T03:06:37.728Z,16.43
2023-11-03T03:09:06.221Z,16.21
2023-11-03T03:11:33.618Z,16.31
2023-11-03T03:14:01.094Z,16.29
2023-11-03T03:16:28.731Z,16.32
2023-11-03T03:18:56.323Z,16.30
2023-11-03T03:21:24.627Z,16.35
2023-11-03T03:23:52.314Z,16.31
2023-11-03T03:26:19.735Z,16.35
2023-11-03T03:28:47.372Z,16.40
2023-11-03T03:31:15.123Z,16.45
2023-11-03T03:33:43.141Z,16.47
2023-11-03T03:36:11.039Z,16.46
2023-11-03T03:38:38.782Z,16.63
2023-11-03T03:41:12.190Z,16.59
2023-11-03T03:43:39.920Z,16.59
2023-11-03T03:46:07.806Z,16.58
2023-11-03T03:48:35.228Z,16.51
2023-11-03T03:51:03.000Z,16.48
2023-11-03T03:53:31.311Z,16.43
2023-11-03T03:55:59.970Z,16.34
2023-11-03T03:58:27.680Z,16.37
2023-11-03T04:00:55.164Z,16.41
2023-11-03T04:03:22.909Z,16.41
2023-11-03T04:05:50.350Z,16.38
2023-11-03T04:08:17.847Z,16.40
2023-11-03T04:10:45.530Z,16.36
2023-11-03T04:13:13.087Z,16.37
2023-11-03T04:15:40.499Z,16.41
2023-11-03T04:18:08.619Z,16.40
2023-11-03T04:20:36.069Z,16.34
2023-11-03T04:23:03.496Z,16.30
2023-11-03T04:25:31.177Z,16.33
2023-11-03T04:27:58.586Z,16.43
2023-11-03T04:30:25.976Z,16.21
2023-11-03T04:32:53.648Z,16.14
2023-11-03T04:35:21.071Z,16.35
2023-11-03T04:37:51.080Z,16.17
2023-11-03T04:40:22.337Z,16.25
2023-11-03T04:42:49.763Z,16.28
2023-11-03T04:45:17.601Z,16.22
2023-11-03T04:47:45.413Z,16.32
2023-11-03T04:50:12.999Z,16.33
2023-11-03T04:52:40.424Z,16.28
2023-11-03T04:55:09.840Z,16.26
2023-11-03T04:57:37.430Z,16.23
2023-11-03T05:00:10.477Z,16.28
2023-11-03T05:02:38.239Z,16.15
2023-11-03T05:05:06.460Z,16.19
2023-11-03T05:07:34.833Z,16.19
2023-11-03T05:10:02.715Z,16.13
2023-11-03T05:12:30.140Z,16.38
2023-11-03T05:14:57.715Z,16.24
2023-11-03T05:17:25.420Z,16.40
2023-11-03T05:19:52.835Z,16.34
2023-11-03T05:22:20.286Z,16.38
2023-11-03T05:24:47.984Z,16.51
2023-11-03T05:27:15.462Z,16.38
2023-11-03T05:29:42.877Z,16.29
2023-11-03T05:32:12.849Z,16.32
2023-11-03T05:34:41.676Z,16.42
2023-11-03T05:37:11.903Z,16.32
2023-11-03T05:39:39.552Z,16.26
2023-11-03T05:42:07.243Z,16.22
2023-11-03T05:44:34.891Z,16.40
2023-11-03T05:47:02.829Z,16.42
2023-11-03T05:49:30.299Z,16.40
2023-11-03T05:51:57.918Z,16.34
2023-11-03T05:54:25.685Z,16.37
2023-11-03T05:56:53.378Z,16.48
2023-11-03T05:59:20.939Z,16.47
2023-11-03T06:01:48.794Z,16.56
2023-11-03T06:04:16.481Z,16.50
2023-11-03T06:06:44.336Z,16.43
2023-11-03T06:09:15.850Z,16.36
2023-11-03T06:11:43.512Z,16.30
2023-11-03T06:14:11.976Z,16.40
2023-11-03T06:16:39.682Z,16.41
2023-11-03T06:19:07.427Z,16.44
2023-11-03T06:21:34.853Z,16.61
2023-11-03T06:24:02.662Z,16.63
2023-11-03T06:26:30.324Z,16.72
2023-11-03T06:28:57.944Z,16.59
2023-11-03T06:31:25.511Z,16.65
2023-11-03T06:33:53.330Z,16.68
2023-11-03T06:36:20.751Z,16.75
2023-11-03T06:38:48.311Z,16.84
2023-11-03T06:41:16.059Z,16.90
2023-11-03T06:43:46.559Z,16.86
2023-11-03T06:46:15.988Z,16.76
2023-11-03T06:48:44.402Z,16.88
2023-11-03T06:51:12.939Z,16.99
2023-11-03T06:53:40.743Z,17.01
2023-11-03T06:56:08.559Z,16.96
2023-11-03T06:58:36.329Z,16.87
2023-11-03T07:01:05.617Z,16.84
2023-11-03T07:03:33.857Z,16.95
2023-11-03T07:06:04.785Z,16.80
2023-11-03T07:08:32.478Z,16.84
2023-11-03T07:10:59.928Z,16.69
2023-11-03T07:13:29.663Z,16.82
2023-11-03T07:15:57.489Z,16.91
2023-11-03T07:18:24.921Z,16.76
2023-11-03T07:20:52.319Z,16.76
2023-11-03T07:23:22.677Z,16.79
2023-11-03T07:25:51.922Z,16.74
2023-11-03T07:28:19.757Z,16.97
2023-11-03T07:30:47.230Z,17.03
2023-11-03T07:33:14.753Z,17.11
2023-11-03T07:35:42.500Z,17.25
2023-11-03T07:38:10.153Z,17.19
2023-11-03T07:40:37.774Z,17.25
2023-11-03T07:43:07.096Z,17.08
2023-11-03T07:45:34.641Z,17.00
2023-11-03T07:48:02.636Z,16.88
2023-11-03T07:50:30.484Z,16.85
2023-11-03T07:52:58.038Z,17.00
2023-11-03T07:55:26.001Z,17.17
2023-11-03T07:57:54.273Z,16.97
2023-11-03T08:00:24.038Z,16.86
2023-11-03T08:02:52.100Z,16.81
2023-11-03T08:05:19.803Z,16.74
2023-11-03T08:07:47.306Z,16.85
2023-11-03T08:10:15.101Z,16.79
2023-11-03T08:12:42.476Z,16.75
2023-11-03T08:15:15.026Z,16.83
2023-11-03T08:17:44.976Z,16.82
2023-11-03T08:20:14.574Z,16.83
2023-11-03T08:22:46.087Z,16.94
2023-11-03T08:25:14.020Z,16.89
2023-11-03T08:27:41.580Z,16.95
2023-11-03T08:30:12.469Z,16.89
2023-11-03T08:32:40.199Z,16.87
2023-11-03T08:35:09.126Z,16.89
2023-11-03T08:37:36.573Z,17.00
2023-11-03T08:40:07.323Z,16.98
2023-11-03T08:42:35.550Z,16.82
2023-11-03T08:45:03.604Z,16.94
2023-11-03T08:47:32.666Z,16.84
2023-11-03T08:50:00.223Z,16.78
2023-11-03T08:52:27.980Z,16.68
2023-11-03T08:54:56.179Z,16.78
2023-11-03T08:57:24.257Z,16.62
2023-11-03T08:59:52.560Z,16.63
2023-11-03T09:02:21.295Z,16.47
2023-11-03T09:04:49.731Z,16.37
2023-11-03T09:07:17.811Z,16.39
2023-11-03T09:09:48.680Z,16.37
2023-11-03T09:12:25.672Z,16.39
2023-11-03T09:14:57.203Z,16.46
2023-11-03T09:17:25.463Z,16.58
2023-11-03T09:20:05.535Z,16.70
2023-11-03T09:22:38.871Z,16.73
2023-11-03T09:25:13.856Z,16.96
2023-11-03T09:27:43.243Z,16.90
2023-11-03T09:30:12.153Z,17.01
2023-11-03T09:32:43.755Z,16.92
2023-11-03T09:35:12.474Z,17.07
2023-11-03T09:37:43.399Z,17.12
2023-11-03T09:40:11.968Z,16.98
2023-11-03T09:42:43.075Z,16.96
2023-11-03T09:45:16.682Z,16.91
2023-11-03T09:47:46.717Z,17.00
2023-11-03T09:50:16.067Z,16.83
2023-11-03T09:52:51.009Z,16.74
2023-11-03T09:55:23.009Z,16.67
2023-11-03T09:58:02.662Z,16.67
2023-11-03T10:00:38.241Z,16.69
2023-11-03T10:03:07.093Z,16.71
2023-11-03T10:05:37.704Z,16.63
2023-11-03T10:08:15.457Z,16.61
2023-11-03T10:10:46.809Z,16.56
2023-11-03T10:13:17.192Z,16.77
2023-11-03T10:15:45.460Z,16.82
2023-11-03T10:18:14.015Z,16.70
2023-11-03T10:20:42.569Z,16.67
2023-11-03T10:23:10.729Z,16.82
2023-11-03T10:25:38.340Z,17.03
2023-11-03T10:28:08.648Z,17.06
2023-11-03T10:30:38.639Z,17.13
2023-11-03T10:33:07.168Z,17.24
2023-11-03T10:35:34.745Z,17.26
2023-11-03T10:38:04.056Z,17.29
2023-11-03T10:40:31.522Z,17.37
2023-11-03T10:43:02.110Z,17.39
2023-11-03T10:45:32.907Z,17.40
2023-11-03T10:48:28.100Z,17.39
2023-11-03T10:51:00.817Z,17.27
2023-11-03T10:53:39.216Z,17.32
2023-11-03T10:58:41.110Z,17.26
2023-11-03T11:01:18.161Z,17.16
2023-11-03T11:04:02.559Z,17.21
2023-11-03T11:06:33.064Z,17.22
2023-11-03T11:09:08.325Z,17.29
2023-11-03T11:11:38.862Z,17.20
2023-11-03T11:14:27.126Z,17.13
2023-11-03T11:16:59.839Z,17.17
2023-11-03T11:19:46.153Z,17.03
2023-11-03T11:22:15.958Z,17.10
2023-11-03T11:24:46.216Z,17.10
2023-11-03T11:27:23.452Z,17.19
2023-11-03T11:29:52.318Z,17.18
2023-11-03T11:32:26.818Z,17.29
2023-11-03T11:34:54.740Z,17.46
2023-11-03T11:37:27.024Z,17.47
2023-11-03T11:40:02.071Z,17.31
2023-11-03T11:42:37.087Z,17.25
2023-11-03T11:45:06.699Z,17.25
2023-11-03T11:47:47.590Z,17.35
2023-11-03T11:50:17.719Z,17.26
2023-11-03T11:52:50.751Z,17.35
2023-11-03T11:55:20.296Z,17.23
2023-11-03T11:58:03.724Z,17.30
2023-11-03T12:00:38.316Z,17.27
2023-11-03T12:03:23.937Z,17.12
2023-11-03T12:05:52.101Z,17.18
2023-11-03T12:08:19.808Z,17.16
2023-11-03T12:10:51.202Z,17.07
2023-11-03T12:13:19.016Z,16.97
2023-11-03T12:15:48.309Z,17.00
2023-11-03T12:18:17.685Z,17.02
2023-11-03T12:21:00.655Z,16.99
2023-11-03T12:23:30.086Z,17.11
2023-11-03T12:26:08.912Z,17.12
2023-11-03T12:28:36.657Z,17.10
2023-11-03T12:31:07.853Z,17.08
2023-11-03T12:33:52.276Z,17.17
2023-11-03T12:36:20.010Z,17.33
2023-11-03T12:38:48.109Z,17.52
2023-11-03T12:41:17.994Z,17.38
2023-11-03T12:43:50.413Z,17.51
2023-11-03T12:46:18.128Z,17.43
2023-11-03T12:48:45.861Z,17.39
2023-11-03T12:51:14.290Z,17.31
2023-11-03T12:53:49.131Z,17.27
2023-11-03T12:56:20.460Z,17.31
2023-11-03T12:58:48.664Z,17.24
2023-11-03T13:01:19.089Z,17.28
2023-11-03T13:03:49.120Z,17.29
2023-11-03T13:06:18.947Z,17.28
2023-11-03T13:08:46.789Z,17.03
2023-11-03T13:11:14.332Z,17.07
2023-11-03T13:13:41.817Z,17.12
2023-11-03T13:16:09.661Z,17.22
2023-11-03T13:18:37.263Z,17.19
2023-11-03T13:21:06.093Z,17.08
2023-11-03T13:23:33.816Z,16.76
2023-11-03T13:26:01.243Z,16.73
2023-11-03T13:28:30.918Z,16.74
2023-11-03T13:31:00.716Z,16.80
2023-11-03T13:33:41.168Z,16.90
2023-11-03T13:36:13.129Z,17.00
2023-11-03T13:38:55.042Z,16.83
2023-11-03T13:41:22.871Z,16.91
2023-11-03T13:43:50.222Z,17.01
2023-11-03T13:46:22.009Z,17.02
2023-11-03T13:48:50.004Z,17.03
2023-11-03T13:51:17.569Z,16.98
2023-11-03T13:53:45.342Z,16.86
2023-11-03T13:56:13.060Z,16.79
2023-11-03T13:58:43.200Z,16.70
2023-11-03T14:01:10.687Z,16.74
2023-11-03T14:03:38.518Z,16.73
2023-11-03T14:06:09.751Z,16.71
2023-11-03T14:08:37.509Z,16.75
2023-11-03T14:11:06.149Z,16.88
2023-11-03T14:13:33.632Z,16.81
2023-11-03T14:16:04.308Z,16.88
2023-11-03T14:18:34.277Z,16.79
2023-11-03T14:21:04.834Z,16.84
2023-11-03T14:23:32.530Z,16.83
2023-11-03T14:25:59.945Z,16.78
2023-11-03T14:28:27.463Z,16.86
2023-11-03T14:30:55.258Z,16.88
2023-11-03T14:33:25.754Z,16.98
2023-11-03T14:35:54.116Z,17.03
2023-11-03T14:38:22.074Z,16.92
2023-11-03T14:40:57.297Z,16.90
2023-11-03T14:43:25.022Z,16.90
2023-11-03T14:45:54.549Z,17.01
2023-11-03T14:48:24.754Z,17.00
2023-11-03T14:50:55.521Z,16.92
2023-11-03T14:53:23.036Z,17.02
2023-11-03T14:55:53.647Z,16.92
2023-11-03T15:00:48.825Z,16.84
2023-11-03T15:05:44.050Z,16.88
2023-11-03T15:08:11.424Z,16.84
2023-11-03T15:10:38.842Z,16.77
2023-11-03T15:13:06.560Z,16.70
2023-11-03T15:15:38.563Z,16.67
2023-11-03T15:18:09.167Z,16.61
2023-11-03T15:20:37.207Z,16.52
2023-11-03T15:23:04.754Z,16.44
2023-11-03T15:25:32.456Z,16.34
2023-11-03T15:27:59.999Z,16.34
2023-11-03T15:30:29.734Z,16.14
2023-11-03T15:32:57.506Z,16.10
2023-11-03T15:35:26.929Z,16.00
2023-11-03T15:37:54.815Z,15.86
2023-11-03T15:40:25.000Z,15.80
2023-11-03T15:42:52.588Z,15.77
2023-11-03T15:45:20.231Z,15.82
2023-11-03T15:47:49.342Z,15.73
2023-11-03T15:50:20.321Z,15.77
2023-11-03T15:52:49.780Z,15.79
2023-11-03T15:55:17.606Z,15.75
2023-11-03T15:57:48.320Z,15.79
2023-11-03T16:00:16.083Z,15.82
2023-11-03T16:02:45.161Z,15.78
2023-11-03T16:05:14.056Z,15.89
2023-11-03T16:07:45.015Z,15.84
2023-11-03T16:10:16.510Z,15.81
2023-11-03T16:12:45.377Z,15.81
2023-11-03T16:15:13.170Z,15.81
2023-11-03T16:17:41.895Z,15.68
2023-11-03T16:20:10.622Z,15.73
2023-11-03T16:22:38.501Z,15.67
2023-11-03T16:25:06.535Z,15.59
2023-11-03T16:27:34.026Z,15.55
2023-11-03T16:30:02.397Z,15.54
2023-11-03T16:32:30.838Z,15.35
2023-11-03T16:34:59.740Z,15.39
2023-11-03T16:37:27.657Z,15.35
2023-11-03T16:39:55.104Z,15.32
2023-11-03T16:42:23.417Z,15.23
2023-11-03T16:44:51.407Z,15.15
2023-11-03T16:47:19.499Z,15.15
2023-11-03T16:49:46.965Z,15.10
2023-11-03T16:52:14.737Z,15.09
2023-11-03T16:54:42.391Z,14.94
2023-11-03T16:57:09.826Z,15.14
2023-11-03T16:59:38.193Z,15.10
2023-11-03T17:02:05.974Z,15.05
2023-11-03T17:04:36.829Z,15.03
2023-11-03T17:07:06.501Z,14.95
2023-11-03T17:09:34.154Z,14.89
2023-11-03T17:12:01.887Z,14.81
2023-11-03T17:14:29.659Z,14.84
2023-11-03T17:16:57.397Z,14.84
2023-11-03T17:19:26.125Z,14.76
2023-11-03T17:21:53.894Z,14.70
2023-11-03T17:24:21.346Z,14.70
2023-11-03T17:26:52.172Z,14.79
2023-11-03T17:29:21.964Z,14.63
2023-11-03T17:31:49.715Z,14.48
2023-11-03T17:34:17.294Z,14.68
2023-11-03T17:36:45.020Z,14.53
2023-11-03T17:39:16.124Z,14.63
2023-11-03T17:41:44.486Z,14.52
2023-11-03T17:44:13.779Z,14.54
2023-11-03T17:46:42.531Z,14.53
2023-11-03T17:49:10.061Z,14.57
2023-11-03T17:51:40.730Z,14.41
2023-11-03T17:54:09.248Z,14.42
2023-11-03T17:56:41.918Z,14.50
2023-11-03T17:59:09.594Z,14.38
2023-11-03T18:01:37.093Z,14.46
2023-11-03T18:04:05.177Z,14.60
2023-11-03T18:06:32.880Z,14.69
2023-11-03T18:09:00.794Z,14.97
2023-11-03T18:11:29.307Z,14.96
2023-11-03T18:13:56.712Z,14.90
2023-11-03T18:16:26.576Z,14.71
2023-11-03T18:18:54.594Z,14.72
2023-11-03T18:21:23.246Z,14.62
2023-11-03T18:23:50.625Z,14.69
2023-11-03T18:26:18.338Z,14.49
2023-11-03T18:28:45.813Z,14.46
2023-11-03T18:31:15.284Z,14.36
2023-11-03T18:33:43.132Z,14.32
2023-11-03T18:36:13.177Z,14.39
2023-11-03T18:38:42.215Z,14.59
2023-11-03T18:41:09.856Z,14.64
2023-11-03T18:43:37.408Z,14.46
2023-11-03T18:46:04.912Z,14.33
2023-11-03T18:48:32.748Z,14.11
2023-11-03T18:57:09.379Z,14.16
2023-11-03T19:00:21.501Z,14.16
2023-11-03T19:02:18.500Z,14.15
2023-11-03T19:05:34.773Z,14.16
2023-11-03T19:07:34.521Z,14.15
2023-11-03T19:10:09.515Z,14.04
2023-11-03T19:12:37.240Z,14.03
2023-11-03T19:15:08.191Z,13.98
2023-11-03T19:17:38.788Z,13.98
2023-11-03T19:20:11.296Z,13.89
2023-11-03T19:22:39.720Z,13.78
2023-11-03T19:25:07.916Z,13.72
2023-11-03T19:27:35.630Z,13.68
2023-11-03T19:30:03.941Z,13.64
2023-11-03T19:32:32.453Z,13.57
2023-11-03T19:35:01.307Z,13.48
2023-11-03T19:37:28.822Z,13.46
2023-11-03T19:39:57.074Z,13.38
2023-11-03T19:42:24.827Z,13.39
2023-11-03T19:44:52.630Z,13.37
2023-11-03T19:47:20.052Z,13.31
2023-11-03T19:49:47.891Z,13.22
2023-11-03T19:52:17.710Z,13.22
2023-11-03T19:54:45.506Z,13.19
2023-11-03T19:57:13.490Z,13.20
2023-11-03T19:59:40.934Z,13.23
2023-11-03T20:02:08.590Z,13.07
2023-11-03T20:04:37.367Z,13.00
2023-11-03T20:07:07.666Z,12.95
2023-11-03T20:09:36.136Z,12.79
2023-11-03T20:12:04.289Z,12.81
2023-11-03T20:14:31.719Z,12.79
2023-11-03T20:16:59.915Z,12.79
2023-11-03T20:19:27.832Z,12.72
2023-11-03T20:21:55.280Z,12.69
2023-11-03T20:24:22.978Z,12.57
2023-11-03T20:26:50.728Z,12.46
2023-11-03T20:29:18.203Z,12.44
2023-11-03T20:31:47.307Z,12.39
2023-11-03T20:34:15.154Z,12.43
2023-11-03T20:36:43.130Z,12.44
2023-11-03T20:39:13.409Z,12.44
2023-11-03T20:41:44.331Z,12.44
2023-11-03T20:44:12.003Z,12.45
2023-11-03T20:46:39.475Z,12.41
2023-11-03T20:49:07.322Z,12.42
2023-11-03T20:51:35.124Z,12.41
2023-11-03T20:54:02.585Z,12.43
2023-11-03T20:56:30.303Z,12.40
2023-11-03T20:58:59.326Z,12.44
2023-11-03T21:01:28.158Z,12.43
2023-11-03T21:03:55.967Z,12.38
2023-11-03T21:06:25.544Z,12.37
2023-11-03T21:08:53.038Z,12.34
2023-11-03T21:11:20.749Z,12.36
2023-11-03T21:13:48.363Z,12.34
2023-11-03T21:16:15.884Z,12.34
2023-11-03T21:18:43.689Z,12.33
2023-11-03T21:21:12.484Z,12.31
2023-11-03T21:23:40.934Z,12.31
2023-11-03T21:26:08.846Z,12.26
2023-11-03T21:28:37.858Z,12.17
2023-11-03T21:31:06.121Z,12.17
2023-11-03T21:33:34.152Z,12.14
2023-11-03T21:36:01.969Z,12.21
2023-11-03T21:38:32.545Z,12.14
2023-11-03T21:41:00.783Z,12.20
2023-11-03T21:43:28.485Z,12.08
2023-11-03T21:45:55.922Z,12.13
2023-11-03T21:48:23.753Z,12.08
2023-11-03T21:50:51.179Z,12.10
2023-11-03T21:53:18.606Z,12.17
2023-11-03T21:55:46.457Z,12.15
2023-11-03T21:58:14.218Z,12.12
2023-11-03T22:00:42.273Z,11.96
2023-11-03T22:03:10.145Z,11.81
2023-11-03T22:05:37.838Z,11.81
2023-11-03T22:08:05.761Z,11.78
2023-11-03T22:10:33.454Z,11.71
2023-11-03T22:13:00.916Z,11.71
2023-11-03T22:15:28.419Z,11.79
2023-11-03T22:17:57.946Z,11.89
2023-11-03T22:20:26.676Z,11.88
2023-11-03T22:22:54.492Z,11.87
2023-11-03T22:25:22.301Z,11.83
2023-11-03T22:27:49.979Z,11.75
2023-11-03T22:30:17.921Z,11.79
2023-11-03T22:32:46.551Z,11.75
2023-11-03T22:35:14.094Z,11.80
2023-11-03T22:37:41.504Z,11.88
2023-11-03T22:40:13.421Z,11.86
2023-11-03T22:42:40.933Z,11.87
2023-11-03T22:45:12.910Z,11.85
2023-11-03T22:47:42.899Z,11.75
2023-11-03T22:50:13.913Z,11.79
2023-11-03T22:52:42.345Z,11.74
2023-11-03T22:55:13.556Z,11.67
2023-11-03T22:57:42.193Z,11.58
2023-11-03T23:00:14.080Z,11.54
2023-11-03T23:02:42.054Z,11.54
2023-11-03T23:05:09.670Z,11.51
2023-11-03T23:07:37.139Z,11.55
2023-11-03T23:10:05.212Z,11.52
2023-11-03T23:12:32.892Z,11.57
2023-11-03T23:15:00.375Z,11.52
2023-11-03T23:17:28.120Z,11.55
2023-11-03T23:19:55.647Z,11.53
2023-11-03T23:22:23.149Z,11.51
2023-11-03T23:24:50.933Z,11.46
2023-11-03T23:27:18.450Z,11.51
2023-11-03T23:29:46.126Z,11.45
2023-11-03T23:32:13.804Z,11.36
2023-11-03T23:34:41.344Z,11.35
2023-11-03T23:37:09.292Z,11.33
2023-11-03T23:39:38.145Z,11.34
2023-11-03T23:42:05.739Z,11.17
2023-11-03T23:44:33.548Z,11.18
2023-11-03T23:47:01.256Z,11.09
2023-11-03T23:49:28.798Z,11.06
2023-11-03T23:51:56.277Z,11.08
2023-11-03T23:54:24.015Z,11.05
2023-11-03T23:56:52.164Z,11.16
2023-11-03T23:59:19.768Z,11.15
